Time;durP1;ratioP1;P1;durP2;ratioP2;P2;SDS_P1;SDS_P2;PMS_P1;PMS_P2;Temp;Humidity;BMP_temperature;BMP_pressure;BME280_temperature;BME280_humidity;BME280_pressure;Samples;Min_cycle;Max_cycle;Signal;HPM_P1;HPM_P2
2021/07/15 00:01:42;;;;;;;9.70;6.47;;;18.20;99.90;;;;;;5029986;28;20305;-91
2021/07/15 00:04:08;;;;;;;11.80;6.40;;;18.20;99.90;;;;;;5027241;28;20698;-93
2021/07/15 00:06:40;;;;;;;14.07;5.70;;;18.20;99.90;;;;;;5039548;28;20220;-91
2021/07/15 00:09:12;;;;;;;9.70;6.00;;;18.20;99.90;;;;;;5042072;28;20281;-94
2021/07/15 00:11:44;;;;;;;13.03;5.23;;;18.10;99.90;;;;;;5039035;28;20214;-91
2021/07/15 00:14:22;;;;;;;12.80;6.87;;;18.10;99.90;;;;;;5055585;28;20209;-91
2021/07/15 00:16:57;;;;;;;16.03;7.60;;;18.10;99.90;;;;;;5026473;28;20578;-90
2021/07/15 00:19:24;;;;;;;14.60;5.73;;;18.10;99.90;;;;;;5029342;28;20222;-91
2021/07/15 00:21:50;;;;;;;11.43;7.43;;;18.10;99.90;;;;;;5026988;28;20254;-91
2021/07/15 00:24:17;;;;;;;9.20;4.03;;;18.10;99.90;;;;;;5025718;28;20620;-91
2021/07/15 00:26:44;;;;;;;18.30;8.33;;;18.10;99.90;;;;;;5019918;28;20221;-92
2021/07/15 00:29:11;;;;;;;12.80;6.70;;;18.10;99.90;;;;;;5029495;28;20226;-91
2021/07/15 00:31:37;;;;;;;6.20;4.63;;;18.10;99.90;;;;;;5032174;28;20241;-91
2021/07/15 00:34:03;;;;;;;10.97;6.60;;;18.10;99.90;;;;;;5005821;28;20683;-90
2021/07/15 00:36:29;;;;;;;13.40;7.40;;;18.10;99.90;;;;;;5028948;28;20210;-92
2021/07/15 00:38:55;;;;;;;14.63;7.07;;;18.10;99.90;;;;;;5031271;28;20214;-92
2021/07/15 00:41:25;;;;;;;9.63;6.53;;;18.20;99.90;;;;;;5031874;28;20228;-92
2021/07/15 00:43:53;;;;;;;14.07;8.10;;;18.20;99.90;;;;;;5030381;28;20194;-90
2021/07/15 00:46:20;;;;;;;13.43;6.43;;;18.20;99.90;;;;;;5030015;28;20340;-91
2021/07/15 00:48:46;;;;;;;9.13;5.20;;;18.10;99.90;;;;;;5029770;28;20300;-92
2021/07/15 00:51:12;;;;;;;15.83;7.93;;;18.10;99.90;;;;;;5021959;28;20210;-92
2021/07/15 00:53:39;;;;;;;9.93;6.63;;;18.20;99.90;;;;;;5024824;28;20192;-92
2021/07/15 00:56:06;;;;;;;18.90;8.07;;;18.20;99.90;;;;;;5033130;28;20269;-91
2021/07/15 00:58:37;;;;;;;10.87;6.40;;;18.20;99.90;;;;;;5028619;28;20275;-90
2021/07/15 01:01:09;;;;;;;18.13;9.23;;;18.20;99.90;;;;;;5013780;28;20972;-91
2021/07/15 01:03:35;;;;;;;9.33;6.13;;;18.20;99.90;;;;;;5030584;28;20245;-94
2021/07/15 01:06:01;;;;;;;13.83;6.50;;;18.10;99.90;;;;;;5027896;28;20217;-93
2021/07/15 01:08:28;;;;;;;21.37;7.43;;;18.10;99.90;;;;;;5049453;28;20236;-92
2021/07/15 01:11:17;;;;;;;13.03;7.10;;;18.10;99.90;;;;;;5016069;28;20210;-90
2021/07/15 01:13:51;;;;;;;15.43;9.33;;;18.10;99.90;;;;;;5030292;28;20276;-92
2021/07/15 01:16:43;;;;;;;13.87;9.17;;;18.10;99.90;;;;;;5031412;28;21435;-92
2021/07/15 01:19:26;;;;;;;15.43;8.07;;;18.20;99.90;;;;;;5010640;28;20214;-90
2021/07/15 01:22:32;;;;;;;11.10;7.87;;;18.10;99.90;;;;;;5032521;28;20225;-92
2021/07/15 01:25:35;;;;;;;12.03;6.47;;;18.10;99.90;;;;;;5036278;28;20352;-90
2021/07/15 01:28:21;;;;;;;21.90;9.93;;;18.20;99.90;;;;;;5066199;28;20993;-91
2021/07/15 01:30:53;;;;;;;14.53;8.07;;;18.20;99.90;;;;;;5018864;28;20337;-91
2021/07/15 01:33:22;;;;;;;10.07;5.03;;;18.20;99.90;;;;;;5029760;28;20234;-90
2021/07/15 01:36:05;;;;;;;11.97;6.57;;;18.10;99.90;;;;;;5026501;28;20594;-91
2021/07/15 01:38:51;;;;;;;12.83;5.23;;;18.10;99.90;;;;;;5024632;28;20187;-94
2021/07/15 01:41:28;;;;;;;9.50;7.10;;;18.10;99.90;;;;;;5036681;28;20319;-94
2021/07/15 01:43:58;;;;;;;10.83;6.13;;;18.20;99.90;;;;;;5024221;28;20223;-93
2021/07/15 01:46:29;;;;;;;16.47;6.90;;;18.20;99.90;;;;;;5018442;28;20854;-93
2021/07/15 01:48:55;;;;;;;15.27;7.47;;;18.10;99.90;;;;;;5019787;28;20257;-92
2021/07/15 01:51:22;;;;;;;10.47;5.57;;;18.20;99.90;;;;;;5028864;28;20294;-93
2021/07/15 01:53:51;;;;;;;15.57;8.17;;;18.10;99.90;;;;;;5023054;28;20215;-93
2021/07/15 01:56:20;;;;;;;12.80;7.00;;;18.10;99.90;;;;;;5033560;28;20195;-92
2021/07/15 01:58:47;;;;;;;14.90;7.57;;;18.10;99.90;;;;;;5025734;28;20211;-90
2021/07/15 02:01:14;;;;;;;11.20;6.73;;;18.20;99.90;;;;;;5025084;28;20582;-90
2021/07/15 02:03:44;;;;;;;23.33;8.00;;;18.20;99.90;;;;;;5023771;28;20222;-91
2021/07/15 02:06:12;;;;;;;13.43;5.27;;;18.10;99.90;;;;;;5019216;28;20221;-90
2021/07/15 02:08:40;;;;;;;8.93;5.00;;;18.10;99.90;;;;;;5017964;28;20188;-93
2021/07/15 02:11:09;;;;;;;3.47;3.13;;;18.10;99.90;;;;;;5026597;28;20594;-91
2021/07/15 02:13:37;;;;;;;14.70;7.60;;;18.10;99.90;;;;;;5024613;28;20219;-93
2021/07/15 02:16:03;;;;;;;7.43;5.03;;;18.10;99.90;;;;;;5027138;28;20647;-90
2021/07/15 02:18:30;;;;;;;12.07;6.17;;;18.10;99.90;;;;;;5016591;28;20292;-91
2021/07/15 02:20:59;;;;;;;10.57;6.40;;;18.10;99.90;;;;;;5020885;28;20226;-91
2021/07/15 02:23:31;;;;;;;9.80;6.70;;;18.00;99.90;;;;;;5017180;28;20194;-91
2021/07/15 02:25:59;;;;;;;11.43;6.10;;;18.00;99.90;;;;;;5017063;28;20303;-90
2021/07/15 02:28:38;;;;;;;11.90;6.73;;;18.00;99.90;;;;;;5026276;28;20204;-91
2021/07/15 02:31:11;;;;;;;16.20;6.87;;;18.10;99.90;;;;;;5026278;28;20237;-91
2021/07/15 02:33:48;;;;;;;13.43;7.47;;;18.10;99.90;;;;;;5024927;28;20282;-92
2021/07/15 02:36:19;;;;;;;17.17;7.00;;;18.10;99.90;;;;;;5028263;28;20214;-93
2021/07/15 02:38:53;;;;;;;10.00;4.83;;;18.20;99.90;;;;;;5026881;28;20687;-95
2021/07/15 02:41:20;;;;;;;18.67;7.23;;;18.20;99.90;;;;;;5028168;28;20310;-93
2021/07/15 02:43:47;;;;;;;10.70;4.60;;;18.10;99.90;;;;;;5017607;28;20305;-93
2021/07/15 02:46:25;;;;;;;13.00;6.00;;;18.10;99.90;;;;;;5029101;28;20226;-96
2021/07/15 02:48:53;;;;;;;24.83;6.73;;;18.10;99.90;;;;;;5024960;28;20293;-93
2021/07/15 02:51:19;;;;;;;11.27;6.63;;;18.10;99.90;;;;;;5026497;28;20211;-94
2021/07/15 02:53:45;;;;;;;8.50;5.47;;;18.00;99.90;;;;;;5015700;28;20218;-94
2021/07/15 02:56:33;;;;;;;11.40;4.97;;;18.00;99.90;;;;;;5016533;28;20190;-92
2021/07/15 02:59:22;;;;;;;12.33;6.70;;;18.10;99.90;;;;;;5030527;28;20218;-94
2021/07/15 03:02:17;;;;;;;8.23;4.43;;;18.00;99.90;;;;;;5008300;28;20218;-92
2021/07/15 03:04:53;;;;;;;11.60;5.73;;;18.00;99.90;;;;;;5024180;28;20227;-92
2021/07/15 03:07:24;;;;;;;6.43;4.93;;;18.00;99.90;;;;;;5028124;28;20210;-93
2021/07/15 03:09:55;;;;;;;5.97;2.70;;;18.00;99.90;;;;;;5021718;28;20218;-95
2021/07/15 03:12:24;;;;;;;11.33;6.27;;;17.90;99.90;;;;;;5027713;28;20203;-95
2021/07/15 03:14:56;;;;;;;5.43;3.67;;;17.90;99.90;;;;;;5027516;28;20240;-94
2021/07/15 03:17:34;;;;;;;10.80;5.73;;;17.90;99.90;;;;;;5036654;28;20186;-94
2021/07/15 03:20:10;;;;;;;10.73;6.23;;;17.80;99.90;;;;;;5025721;28;20950;-94
2021/07/15 03:22:41;;;;;;;11.37;5.30;;;17.80;99.90;;;;;;5023324;28;20206;-94
2021/07/15 03:25:16;;;;;;;5.57;3.70;;;17.90;99.90;;;;;;5041197;28;20245;-92
2021/07/15 03:27:45;;;;;;;7.83;4.53;;;17.80;99.90;;;;;;5025914;28;20218;-94
2021/07/15 03:30:17;;;;;;;4.27;3.87;;;17.80;99.90;;;;;;5014664;28;20238;-93
2021/07/15 03:32:49;;;;;;;15.57;6.30;;;17.70;99.90;;;;;;5005605;28;20274;-93
2021/07/15 03:35:21;;;;;;;10.37;7.20;;;17.70;99.90;;;;;;5008408;28;20288;-93
2021/07/15 03:37:48;;;;;;;8.67;4.83;;;17.70;99.90;;;;;;5007087;28;20203;-93
2021/07/15 03:40:21;;;;;;;14.03;5.90;;;17.70;99.90;;;;;;5003567;28;20239;-92
2021/07/15 03:42:48;;;;;;;18.90;7.03;;;17.70;99.90;;;;;;5005434;28;20199;-93
2021/07/15 03:45:16;;;;;;;16.40;6.07;;;17.70;99.90;;;;;;5011001;28;20223;-93
2021/07/15 03:48:06;;;;;;;10.47;5.43;;;17.70;99.90;;;;;;5014043;28;20220;-92
2021/07/15 03:50:33;;;;;;;8.17;4.33;;;17.70;99.90;;;;;;5008944;28;20643;-93
2021/07/15 03:53:03;;;;;;;9.23;6.13;;;17.70;99.90;;;;;;5006995;28;20249;-93
2021/07/15 03:55:34;;;;;;;4.23;3.57;;;17.70;99.90;;;;;;5006036;28;20239;-92
2021/07/15 03:58:07;;;;;;;13.60;5.43;;;17.70;99.90;;;;;;5005719;28;20273;-93
2021/07/15 04:00:37;;;;;;;9.83;5.67;;;17.70;99.90;;;;;;5008277;28;20216;-92
2021/07/15 04:03:10;;;;;;;10.83;4.67;;;17.70;99.90;;;;;;5001435;28;20250;-92
2021/07/15 04:05:41;;;;;;;9.13;4.90;;;17.70;99.90;;;;;;5009643;28;20199;-91
2021/07/15 04:08:09;;;;;;;7.23;5.07;;;17.80;99.90;;;;;;5011655;28;20199;-93
2021/07/15 04:10:39;;;;;;;8.33;4.40;;;17.80;99.90;;;;;;5003381;28;20300;-94
2021/07/15 04:13:06;;;;;;;19.50;5.87;;;17.80;99.90;;;;;;4994101;28;20215;-92
2021/07/15 04:15:51;;;;;;;9.07;5.63;;;17.80;99.90;;;;;;5010329;28;20254;-93
2021/07/15 04:18:33;;;;;;;4.00;3.50;;;17.80;99.90;;;;;;5012424;28;20199;-94
2021/07/15 04:21:02;;;;;;;7.93;5.37;;;17.80;99.90;;;;;;5003391;28;20210;-90
2021/07/15 04:23:30;;;;;;;10.67;5.53;;;17.80;99.90;;;;;;4995527;28;20199;-92
2021/07/15 04:25:56;;;;;;;12.57;4.97;;;17.80;99.90;;;;;;5003516;28;20180;-91
2021/07/15 04:28:24;;;;;;;7.50;3.93;;;17.80;99.90;;;;;;5004526;28;20208;-92
2021/07/15 04:31:16;;;;;;;7.90;4.07;;;17.80;99.90;;;;;;5004179;28;20234;-92
2021/07/15 04:33:44;;;;;;;7.80;4.10;;;17.70;99.90;;;;;;4988603;28;20659;-89
2021/07/15 04:36:10;;;;;;;19.40;4.73;;;17.70;99.90;;;;;;4993302;28;20238;-90
2021/07/15 04:38:36;;;;;;;6.70;3.53;;;17.70;99.90;;;;;;5004986;28;20223;-90
2021/07/15 04:41:04;;;;;;;9.43;5.10;;;17.70;99.90;;;;;;5002975;28;20215;-91
2021/07/15 04:43:30;;;;;;;5.30;3.37;;;17.60;99.90;;;;;;5001586;28;20211;-89
2021/07/15 04:45:58;;;;;;;18.50;4.67;;;17.70;99.90;;;;;;4991690;28;20212;-89
2021/07/15 04:48:24;;;;;;;10.97;4.60;;;17.80;99.90;;;;;;5000888;28;20211;-89
2021/07/15 04:50:51;;;;;;;11.87;3.77;;;17.70;99.90;;;;;;4991638;28;20285;-89
2021/07/15 04:53:20;;;;;;;6.33;3.43;;;17.70;99.90;;;;;;5000224;28;20294;-90
2021/07/15 04:55:47;;;;;;;7.73;3.37;;;17.60;99.90;;;;;;4991754;28;20302;-91
2021/07/15 04:58:14;;;;;;;12.77;4.03;;;17.70;99.90;;;;;;4998103;28;20352;-92
2021/07/15 05:00:40;;;;;;;10.57;5.23;;;17.70;99.90;;;;;;4992007;28;20691;-91
2021/07/15 05:03:30;;;;;;;3.77;2.70;;;17.70;99.90;;;;;;4992518;28;20215;-91
2021/07/15 05:05:57;;;;;;;4.43;3.23;;;17.70;99.90;;;;;;5003429;28;20207;-91
2021/07/15 05:08:23;;;;;;;12.60;4.37;;;17.60;99.90;;;;;;5000292;28;20183;-90
2021/07/15 05:10:49;;;;;;;10.97;4.53;;;17.60;99.90;;;;;;4985771;28;20180;-92
2021/07/15 05:13:15;;;;;;;19.73;5.30;;;17.70;99.90;;;;;;4992243;28;20209;-91
2021/07/15 05:15:41;;;;;;;10.70;4.47;;;17.70;99.90;;;;;;4993210;28;20301;-92
2021/07/15 05:18:07;;;;;;;9.93;4.27;;;17.70;99.90;;;;;;5001268;28;20212;-90
2021/07/15 05:20:32;;;;;;;14.40;4.23;;;17.80;99.90;;;;;;4977945;28;20260;-92
2021/07/15 05:23:00;;;;;;;5.17;3.30;;;17.80;99.90;;;;;;5002384;28;20176;-92
2021/07/15 05:25:26;;;;;;;9.67;3.90;;;17.80;99.90;;;;;;4999252;28;20235;-93
2021/07/15 05:27:52;;;;;;;7.97;4.43;;;17.80;99.90;;;;;;4991359;28;20718;-92
2021/07/15 05:30:18;;;;;;;6.10;2.67;;;17.90;99.90;;;;;;4977055;28;20235;-90
2021/07/15 05:32:44;;;;;;;5.30;3.53;;;17.90;99.90;;;;;;4983469;28;20260;-91
2021/07/15 05:35:10;;;;;;;4.40;3.20;;;18.00;99.90;;;;;;4993325;28;20286;-92
2021/07/15 05:37:36;;;;;;;9.07;4.07;;;17.90;99.90;;;;;;5008134;28;20723;-91
2021/07/15 05:40:03;;;;;;;8.20;4.23;;;17.90;99.90;;;;;;4993024;28;20222;-91
2021/07/15 05:42:29;;;;;;;5.60;3.47;;;17.90;99.90;;;;;;4996144;28;20587;-91
2021/07/15 05:44:55;;;;;;;12.60;4.53;;;17.80;99.90;;;;;;4990792;28;20227;-90
2021/07/15 05:47:21;;;;;;;8.70;4.10;;;17.90;99.90;;;;;;5007182;28;20675;-90
2021/07/15 05:49:47;;;;;;;9.00;5.00;;;17.90;99.90;;;;;;5008425;28;20179;-91
2021/07/15 05:52:13;;;;;;;16.37;5.27;;;17.90;99.90;;;;;;4992028;28;20214;-90
2021/07/15 05:54:39;;;;;;;8.77;5.27;;;18.00;99.90;;;;;;5008289;28;20226;-91
2021/07/15 05:57:06;;;;;;;14.90;4.07;;;18.00;99.90;;;;;;5016318;28;20206;-91
2021/07/15 05:59:34;;;;;;;5.37;3.07;;;17.90;99.90;;;;;;5007738;28;20188;-91
2021/07/15 06:02:01;;;;;;;8.13;4.97;;;17.80;99.90;;;;;;5016911;28;20843;-89
2021/07/15 06:04:27;;;;;;;7.90;4.67;;;17.90;99.90;;;;;;5016042;28;20222;-90
2021/07/15 06:06:53;;;;;;;19.73;5.03;;;17.80;99.90;;;;;;5008637;28;20234;-90
2021/07/15 06:09:19;;;;;;;8.83;5.03;;;18.00;99.90;;;;;;4990450;28;20215;-89
2021/07/15 06:11:45;;;;;;;8.50;4.17;;;18.00;99.90;;;;;;5007475;28;21392;-94
2021/07/15 06:14:11;;;;;;;5.47;4.10;;;18.00;99.90;;;;;;4991309;28;20959;-90
2021/07/15 06:16:36;;;;;;;10.07;4.27;;;17.80;99.90;;;;;;5015664;28;20288;-92
2021/07/15 06:19:02;;;;;;;9.43;4.60;;;17.80;99.90;;;;;;5007662;28;20250;-91
2021/07/15 06:21:28;;;;;;;8.10;4.17;;;17.80;99.90;;;;;;5008119;28;20229;-91
2021/07/15 06:23:54;;;;;;;6.40;4.07;;;17.80;99.90;;;;;;4991296;28;20226;-90
2021/07/15 06:26:20;;;;;;;7.83;4.43;;;17.90;99.90;;;;;;4993023;28;20183;-93
2021/07/15 06:28:46;;;;;;;8.17;4.03;;;18.00;99.90;;;;;;5008444;28;20250;-92
2021/07/15 06:31:12;;;;;;;7.30;4.50;;;18.00;99.90;;;;;;4999166;28;20222;-89
2021/07/15 06:33:38;;;;;;;6.27;2.80;;;18.00;99.90;;;;;;5017156;28;20308;-90
2021/07/15 06:36:06;;;;;;;7.77;3.47;;;18.00;99.90;;;;;;5007861;28;20219;-89
2021/07/15 06:38:35;;;;;;;8.83;3.23;;;18.00;99.90;;;;;;5007732;28;20275;-87
2021/07/15 06:41:06;;;;;;;8.90;2.57;;;18.10;99.90;;;;;;5016199;28;20633;-90
2021/07/15 06:43:33;;;;;;;13.13;3.50;;;18.20;99.90;;;;;;5016218;28;20221;-92
2021/07/15 06:45:59;;;;;;;12.47;3.40;;;18.10;99.90;;;;;;5006979;28;20735;-93
2021/07/15 06:48:26;;;;;;;6.70;3.17;;;18.00;99.90;;;;;;5007584;28;20211;-91
2021/07/15 06:50:52;;;;;;;12.70;4.47;;;18.10;99.90;;;;;;5016928;28;20310;-90
2021/07/15 06:53:18;;;;;;;8.80;3.77;;;18.00;99.90;;;;;;5007695;28;20274;-91
2021/07/15 06:55:44;;;;;;;10.00;3.33;;;17.90;99.90;;;;;;4991077;28;20214;-89
2021/07/15 06:58:10;;;;;;;12.90;4.70;;;18.00;99.90;;;;;;5014737;28;20230;-89
2021/07/15 07:00:37;;;;;;;7.47;3.83;;;18.00;99.90;;;;;;5008086;28;20224;-90
2021/07/15 07:03:03;;;;;;;4.60;4.17;;;17.90;99.90;;;;;;5013109;28;20210;-90
2021/07/15 07:05:28;;;;;;;9.47;4.60;;;17.90;99.90;;;;;;5016509;28;20754;-89
2021/07/15 07:07:54;;;;;;;4.97;3.00;;;18.00;99.90;;;;;;4984998;28;20286;-89
2021/07/15 07:10:20;;;;;;;6.47;3.30;;;18.00;99.90;;;;;;4991617;28;20222;-89
2021/07/15 07:12:47;;;;;;;5.87;3.10;;;18.00;99.90;;;;;;4998805;28;20223;-89
2021/07/15 07:15:15;;;;;;;5.93;3.50;;;18.10;99.90;;;;;;5007565;28;20286;-88
2021/07/15 07:17:41;;;;;;;10.27;4.03;;;18.20;99.90;;;;;;5016340;28;20247;-90
2021/07/15 07:20:09;;;;;;;6.67;3.83;;;18.20;99.90;;;;;;5022598;28;20191;-88
2021/07/15 07:22:35;;;;;;;8.37;3.37;;;18.30;99.90;;;;;;5010751;28;20221;-90
2021/07/15 07:25:03;;;;;;;8.13;3.10;;;18.10;99.90;;;;;;5011747;28;20215;-88
2021/07/15 07:27:31;;;;;;;8.90;2.57;;;18.10;99.90;;;;;;5016065;28;20243;-90
2021/07/15 07:29:57;;;;;;;8.77;3.97;;;18.10;99.90;;;;;;5011833;28;20222;-89
2021/07/15 07:32:23;;;;;;;5.20;3.27;;;18.20;99.90;;;;;;4995686;28;20707;-92
2021/07/15 07:34:49;;;;;;;6.97;4.17;;;18.40;99.90;;;;;;4995767;28;20234;-91
2021/07/15 07:37:15;;;;;;;5.67;3.60;;;18.50;99.90;;;;;;4994237;28;20223;-91
2021/07/15 07:39:41;;;;;;;9.90;3.60;;;18.40;99.90;;;;;;5009848;28;21116;-91
2021/07/15 07:42:06;;;;;;;9.00;3.60;;;18.30;99.90;;;;;;5010461;28;20802;-91
2021/07/15 07:44:32;;;;;;;11.40;3.87;;;18.30;99.90;;;;;;4994348;28;20218;-93
2021/07/15 07:46:58;;;;;;;7.27;3.60;;;18.20;99.90;;;;;;5013235;28;20678;-92
2021/07/15 07:49:24;;;;;;;8.97;3.70;;;18.10;99.90;;;;;;5017964;28;20198;-91
2021/07/15 07:51:50;;;;;;;12.37;4.73;;;18.10;99.90;;;;;;5011143;28;20301;-91
2021/07/15 07:54:21;;;;;;;7.80;3.30;;;18.10;99.90;;;;;;4996644;28;20310;-91
2021/07/15 07:56:50;;;;;;;12.10;4.00;;;18.10;99.90;;;;;;5013399;28;20589;-94
2021/07/15 07:59:19;;;;;;;5.73;3.57;;;18.10;99.90;;;;;;5029205;28;20182;-94
2021/07/15 08:01:46;;;;;;;9.83;3.80;;;18.10;99.90;;;;;;5001877;28;20215;-93
2021/07/15 08:04:18;;;;;;;7.07;3.57;;;18.10;99.90;;;;;;5014643;28;20229;-94
2021/07/15 08:06:46;;;;;;;9.57;4.87;;;18.10;99.90;;;;;;5010862;28;20212;-93
2021/07/15 08:09:15;;;;;;;8.60;4.00;;;18.10;99.90;;;;;;5011134;28;20202;-94
2021/07/15 08:11:46;;;;;;;8.67;3.73;;;18.20;99.90;;;;;;5018647;28;20211;-93
2021/07/15 08:14:15;;;;;;;7.70;3.97;;;18.10;99.90;;;;;;4988661;28;20223;-95
2021/07/15 08:16:41;;;;;;;7.90;4.20;;;18.10;99.90;;;;;;5001981;28;20300;-95
2021/07/15 08:19:10;;;;;;;18.43;4.10;;;18.10;99.90;;;;;;5018577;28;20215;-94
2021/07/15 08:21:36;;;;;;;7.47;3.63;;;18.10;99.90;;;;;;5021720;28;20227;-92
2021/07/15 08:24:02;;;;;;;12.63;3.27;;;18.20;99.90;;;;;;5023505;28;20306;-93
2021/07/15 08:26:33;;;;;;;12.30;3.50;;;18.30;99.90;;;;;;5020232;28;20221;-93
2021/07/15 08:29:11;;;;;;;8.97;4.53;;;18.30;99.90;;;;;;5014409;28;20172;-92
2021/07/15 08:31:37;;;;;;;4.17;3.77;;;18.40;99.90;;;;;;5025129;28;20226;-94
2021/07/15 08:34:03;;;;;;;4.40;3.43;;;18.30;99.90;;;;;;5017301;28;20232;-95
2021/07/15 08:36:33;;;;;;;5.80;3.40;;;18.30;99.90;;;;;;5045398;28;20871;-94
2021/07/15 08:39:00;;;;;;;6.37;2.90;;;18.30;99.90;;;;;;5040647;28;20218;-92
2021/07/15 08:41:28;;;;;;;4.20;3.30;;;18.30;99.90;;;;;;5022581;28;20190;-93
2021/07/15 08:43:57;;;;;;;5.13;2.93;;;18.20;99.90;;;;;;5025889;28;20206;-93
2021/07/15 08:46:27;;;;;;;6.87;2.77;;;18.20;99.90;;;;;;5015408;28;20233;-93
2021/07/15 08:48:54;;;;;;;6.90;3.73;;;18.20;99.90;;;;;;5019759;28;20211;-91
2021/07/15 08:51:20;;;;;;;11.93;4.73;;;18.30;99.90;;;;;;5023120;28;20269;-91
2021/07/15 08:53:48;;;;;;;8.07;3.57;;;18.30;99.90;;;;;;5025532;28;20217;-93
2021/07/15 08:59:01;;;;;;;6.07;3.93;;;18.30;99.90;;;;;;5040963;28;20214;-94
2021/07/15 09:01:45;;;;;;;6.17;3.47;;;18.40;99.90;;;;;;5025014;28;20591;-94
2021/07/15 09:04:12;;;;;;;7.63;3.07;;;18.40;99.90;;;;;;5029731;28;20226;-94
2021/07/15 09:06:43;;;;;;;24.40;5.03;;;18.20;99.90;;;;;;5025424;28;20217;-95
2021/07/15 09:09:14;;;;;;;6.00;3.63;;;18.20;99.90;;;;;;5015937;28;20277;-94
2021/07/15 09:11:40;;;;;;;6.40;3.40;;;18.10;99.90;;;;;;5016415;28;20257;-92
2021/07/15 09:14:17;;;;;;;9.77;4.57;;;18.10;99.90;;;;;;5037579;28;20602;-94
2021/07/15 09:16:51;;;;;;;12.00;4.33;;;18.10;99.90;;;;;;5030252;28;20241;-92
2021/07/15 09:19:19;;;;;;;7.83;4.40;;;18.20;99.90;;;;;;5020832;28;20225;-92
2021/07/15 09:21:46;;;;;;;6.13;3.27;;;18.20;99.90;;;;;;5021318;28;20317;-92
2021/07/15 09:24:37;;;;;;;11.87;3.70;;;18.20;99.90;;;;;;5021653;28;20319;-91
2021/07/15 09:27:30;;;;;;;7.47;3.70;;;18.20;99.90;;;;;;5022919;28;20217;-92
2021/07/15 09:30:05;;;;;;;6.93;3.30;;;18.20;99.90;;;;;;5011818;28;20302;-91
2021/07/15 09:32:31;;;;;;;5.63;3.63;;;18.10;99.90;;;;;;5023169;28;20238;-91
2021/07/15 09:35:07;;;;;;;5.70;4.20;;;18.10;99.90;;;;;;4986264;28;20252;-91
2021/07/15 09:37:35;;;;;;;7.47;4.00;;;18.00;99.90;;;;;;5012560;28;20689;-91
2021/07/15 09:40:03;;;;;;;4.37;3.10;;;18.00;99.90;;;;;;5021457;28;20782;-92
2021/07/15 09:42:28;;;;;;;14.67;5.43;;;18.00;99.90;;;;;;5006960;28;20760;-91
2021/07/15 09:44:54;;;;;;;7.27;4.53;;;18.10;99.90;;;;;;5014952;28;20230;-92
2021/07/15 09:47:32;;;;;;;6.43;4.43;;;18.00;99.90;;;;;;4998320;28;20191;-93
2021/07/15 09:50:19;;;;;;;8.47;4.97;;;17.90;99.90;;;;;;5020067;28;20230;-93
2021/07/15 09:52:45;;;;;;;7.47;3.13;;;17.90;99.90;;;;;;5003840;28;20221;-93
2021/07/15 09:55:26;;;;;;;4.57;3.40;;;18.00;99.90;;;;;;5017220;28;20218;-92
2021/07/15 09:58:01;;;;;;;4.60;3.83;;;18.00;99.90;;;;;;5020121;28;20214;-89
2021/07/15 10:00:42;;;;;;;16.10;5.20;;;18.00;99.90;;;;;;5018586;28;20210;-89
2021/07/15 10:03:11;;;;;;;7.43;4.57;;;18.10;99.90;;;;;;5018811;28;20596;-89
2021/07/15 10:05:38;;;;;;;10.37;4.80;;;18.10;99.90;;;;;;5020623;28;20658;-89
2021/07/15 10:08:09;;;;;;;7.57;5.20;;;18.00;99.90;;;;;;5010972;28;20178;-90
2021/07/15 10:10:38;;;;;;;12.97;4.07;;;18.00;99.90;;;;;;5022208;28;20712;-91
2021/07/15 10:13:19;;;;;;;13.17;5.20;;;18.20;99.90;;;;;;5022215;28;20260;-91
2021/07/15 10:15:46;;;;;;;13.60;6.00;;;18.40;99.90;;;;;;5023600;28;20209;-88
2021/07/15 10:18:13;;;;;;;6.63;3.53;;;18.40;99.90;;;;;;5023443;28;20218;-90
2021/07/15 10:20:54;;;;;;;9.50;4.77;;;18.30;99.90;;;;;;5022844;28;20194;-89
2021/07/15 10:23:34;;;;;;;6.93;4.23;;;18.30;99.90;;;;;;5018980;28;20171;-88
2021/07/15 10:26:01;;;;;;;16.50;4.40;;;18.40;99.90;;;;;;5021995;28;20226;-89
2021/07/15 10:28:28;;;;;;;6.43;4.30;;;18.40;99.90;;;;;;5011690;28;20207;-89
2021/07/15 10:31:02;;;;;;;5.80;4.10;;;18.30;99.90;;;;;;5020603;28;20218;-90
2021/07/15 10:33:29;;;;;;;10.23;3.57;;;18.30;99.90;;;;;;5019977;28;20298;-88
2021/07/15 10:36:00;;;;;;;6.03;3.97;;;18.40;99.90;;;;;;5022188;28;21209;-89
2021/07/15 10:38:30;;;;;;;12.43;5.23;;;18.30;99.90;;;;;;5020671;28;20198;-91
2021/07/15 10:40:58;;;;;;;9.20;4.60;;;18.30;99.90;;;;;;5019995;28;20604;-88
2021/07/15 10:43:24;;;;;;;8.83;4.33;;;18.40;99.90;;;;;;5017807;28;20207;-90
2021/07/15 10:45:52;;;;;;;8.53;4.23;;;18.50;99.90;;;;;;5026640;28;20221;-91
2021/07/15 10:48:19;;;;;;;6.17;4.43;;;18.50;99.90;;;;;;5021709;28;20726;-92
2021/07/15 10:50:44;;;;;;;8.33;4.77;;;18.50;99.90;;;;;;5011126;28;20289;-91
2021/07/15 10:53:13;;;;;;;13.60;5.37;;;18.50;99.90;;;;;;5018425;28;20306;-91
2021/07/15 10:55:39;;;;;;;10.10;4.80;;;18.50;99.90;;;;;;5024356;28;20214;-92
2021/07/15 10:58:05;;;;;;;5.87;3.43;;;18.40;99.90;;;;;;5024505;28;20221;-91
2021/07/15 11:00:31;;;;;;;8.70;6.57;;;18.40;99.90;;;;;;4998665;28;20221;-92
2021/07/15 11:03:12;;;;;;;10.30;5.40;;;18.40;99.90;;;;;;5024092;28;20241;-90
2021/07/15 11:05:51;;;;;;;9.03;5.03;;;18.50;99.90;;;;;;5022523;28;20304;-91
2021/07/15 11:08:18;;;;;;;9.23;4.93;;;18.60;99.90;;;;;;5023784;28;20178;-90
2021/07/15 11:10:44;;;;;;;12.87;4.97;;;18.50;99.90;;;;;;5021908;28;20220;-90
2021/07/15 11:13:27;;;;;;;7.53;5.03;;;18.70;99.90;;;;;;5015205;28;20210;-91
2021/07/15 11:15:57;;;;;;;9.17;6.20;;;18.80;99.90;;;;;;5006525;28;20214;-89
2021/07/15 11:18:45;;;;;;;10.53;4.67;;;18.90;99.90;;;;;;5024561;28;20202;-90
2021/07/15 11:21:37;;;;;;;6.53;2.93;;;18.70;99.90;;;;;;5023533;28;20210;-90
2021/07/15 11:24:06;;;;;;;6.43;3.07;;;18.70;99.90;;;;;;5011669;28;20252;-91
2021/07/15 11:26:38;;;;;;;5.57;3.47;;;18.90;99.90;;;;;;5023627;28;20741;-90
2021/07/15 11:29:05;;;;;;;7.50;4.13;;;18.70;99.90;;;;;;5022557;28;20198;-90
2021/07/15 11:31:53;;;;;;;9.33;4.20;;;18.60;99.90;;;;;;5022162;28;20221;-90
2021/07/15 11:34:38;;;;;;;4.10;3.60;;;18.70;99.90;;;;;;5019570;28;20291;-90
2021/07/15 11:37:25;;;;;;;8.37;3.83;;;18.90;99.90;;;;;;5021387;28;20225;-91
2021/07/15 11:39:52;;;;;;;13.23;3.93;;;19.10;99.90;;;;;;5023289;28;20261;-90
2021/07/15 11:42:19;;;;;;;6.03;4.23;;;19.10;99.90;;;;;;5023524;28;20221;-92
2021/07/15 11:45:09;;;;;;;10.00;4.50;;;19.20;99.90;;;;;;5024887;28;20797;-90
2021/07/15 11:47:54;;;;;;;6.90;4.03;;;19.40;99.90;;;;;;5019900;28;20214;-91
2021/07/15 11:50:36;;;;;;;13.37;4.60;;;19.50;99.90;;;;;;5015284;28;20199;-88
2021/07/15 11:53:20;;;;;;;5.70;3.87;;;19.50;99.90;;;;;;5023170;28;20220;-91
2021/07/15 11:55:48;;;;;;;8.63;4.13;;;19.60;99.90;;;;;;5021958;28;20312;-89
2021/07/15 11:58:38;;;;;;;9.93;3.87;;;19.70;99.90;;;;;;5030209;28;20709;-88
2021/07/15 12:01:17;;;;;;;12.03;4.40;;;19.60;99.90;;;;;;5022552;28;20210;-89
2021/07/15 12:04:03;;;;;;;8.20;3.73;;;19.50;99.90;;;;;;5020997;28;20305;-90
2021/07/15 12:06:30;;;;;;;6.67;3.90;;;19.60;99.90;;;;;;5020555;28;20309;-90
2021/07/15 12:09:08;;;;;;;7.67;3.47;;;19.60;99.90;;;;;;5012999;28;20209;-90
2021/07/15 12:11:36;;;;;;;10.70;3.97;;;19.50;99.90;;;;;;5022525;28;20194;-90
2021/07/15 12:14:03;;;;;;;5.73;3.20;;;19.60;99.90;;;;;;5013157;28;20182;-91
2021/07/15 12:16:31;;;;;;;5.67;3.40;;;19.80;99.90;;;;;;5004740;28;20226;-89
2021/07/15 12:19:07;;;;;;;7.30;2.73;;;20.20;99.90;;;;;;5021776;28;20210;-90
2021/07/15 12:21:35;;;;;;;3.73;2.40;;;20.00;99.90;;;;;;5020232;28;20233;-91
2021/07/15 12:24:10;;;;;;;4.57;2.80;;;20.00;99.90;;;;;;5012881;28;20689;-89
2021/07/15 12:26:37;;;;;;;13.53;3.50;;;20.00;99.90;;;;;;5021549;28;21951;-90
2021/07/15 12:29:04;;;;;;;4.07;2.73;;;19.90;99.90;;;;;;5007234;28;20226;-89
2021/07/15 12:31:31;;;;;;;5.70;3.43;;;19.80;99.90;;;;;;5011649;28;20281;-89
2021/07/15 12:34:09;;;;;;;6.30;3.23;;;19.90;99.90;;;;;;5022223;28;20261;-89
2021/07/15 12:36:39;;;;;;;4.43;3.40;;;19.90;99.90;;;;;;5021685;28;20203;-89
2021/07/15 12:39:13;;;;;;;4.20;2.50;;;20.20;99.90;;;;;;5021121;28;20281;-89
2021/07/15 12:41:41;;;;;;;2.80;2.30;;;20.50;99.90;;;;;;5005959;28;20191;-90
2021/07/15 12:44:09;;;;;;;4.13;3.73;;;20.60;99.90;;;;;;5014229;28;20229;-89
2021/07/15 12:46:44;;;;;;;7.77;3.80;;;20.60;99.90;;;;;;5020480;28;20209;-91
2021/07/15 12:49:18;;;;;;;7.53;3.40;;;20.60;99.90;;;;;;5020996;28;20205;-89
2021/07/15 12:51:50;;;;;;;5.97;2.57;;;20.60;99.90;;;;;;5038347;28;20209;-89
2021/07/15 12:54:31;;;;;;;8.60;3.13;;;20.50;99.90;;;;;;5022473;28;20214;-90
2021/07/15 12:56:58;;;;;;;4.37;3.23;;;20.60;99.90;;;;;;5013874;28;20713;-91
2021/07/15 12:59:27;;;;;;;7.30;2.93;;;20.40;99.90;;;;;;4996562;28;20190;-90
2021/07/15 13:01:53;;;;;;;7.13;3.40;;;20.30;99.90;;;;;;5021401;28;20197;-90
2021/07/15 13:04:21;;;;;;;8.73;3.27;;;20.40;99.90;;;;;;5011926;28;20260;-90